createdAt,value
2018-09-17T00:00:45.370Z,11.55
2018-09-17T00:03:13.898Z,11.54
2018-09-17T00:05:42.531Z,11.50
2018-09-17T00:08:12.020Z,11.53
2018-09-17T00:10:40.646Z,11.47
2018-09-17T00:13:09.161Z,11.54
2018-09-17T00:15:37.680Z,11.52
2018-09-17T00:18:06.346Z,11.51
2018-09-17T00:20:35.735Z,11.48
2018-09-17T00:23:04.350Z,11.52
2018-09-17T00:25:32.832Z,11.56
2018-09-17T00:28:01.869Z,11.56
2018-09-17T00:30:30.623Z,11.55
2018-09-17T00:33:00.203Z,11.53
2018-09-17T00:35:29.721Z,11.40
2018-09-17T00:37:58.226Z,11.29
2018-09-17T00:40:27.618Z,11.23
2018-09-17T00:42:56.155Z,11.15
2018-09-17T00:45:25.166Z,11.08
2018-09-17T00:47:53.883Z,11.12
2018-09-17T00:50:23.061Z,11.10
2018-09-17T00:52:54.374Z,11.07
2018-09-17T00:55:22.859Z,11.07
2018-09-17T00:57:51.477Z,11.04
2018-09-17T01:00:20.637Z,11.01
2018-09-17T01:02:49.287Z,10.94
2018-09-17T01:05:17.746Z,10.88
2018-09-17T01:07:46.404Z,10.91
2018-09-17T01:10:14.991Z,10.91
2018-09-17T01:12:43.504Z,10.84
2018-09-17T01:15:11.979Z,10.76
2018-09-17T01:17:41.180Z,10.76
2018-09-17T01:20:09.738Z,10.74
2018-09-17T01:22:38.292Z,10.46
2018-09-17T01:25:07.405Z,10.32
2018-09-17T01:27:35.981Z,10.50
2018-09-17T01:30:04.572Z,10.43
2018-09-17T01:32:33.101Z,10.65
2018-09-17T01:35:01.667Z,10.75
2018-09-17T01:37:30.270Z,10.59
2018-09-17T01:40:00.697Z,10.76
2018-09-17T01:42:29.272Z,10.82
2018-09-17T01:44:57.834Z,10.81
2018-09-17T01:47:26.341Z,10.82
2018-09-17T01:49:55.172Z,10.80
2018-09-17T01:52:23.771Z,10.84
2018-09-17T01:54:53.232Z,10.80
2018-09-17T01:57:22.575Z,10.71
2018-09-17T01:59:51.115Z,10.69
2018-09-17T02:02:19.816Z,10.65
2018-09-17T02:04:48.368Z,10.58
2018-09-17T02:07:17.072Z,10.55
2018-09-17T02:09:46.479Z,10.41
2018-09-17T02:12:16.067Z,10.41
2018-09-17T02:14:44.656Z,10.42
2018-09-17T02:17:13.408Z,10.42
2018-09-17T02:19:42.768Z,10.44
2018-09-17T02:22:11.548Z,10.42
2018-09-17T02:24:40.590Z,10.38
2018-09-17T02:27:09.806Z,10.38
2018-09-17T02:29:38.462Z,10.34
2018-09-17T02:32:07.258Z,10.31
2018-09-17T02:34:35.774Z,10.35
2018-09-17T02:37:04.248Z,10.32
2018-09-17T02:39:33.041Z,10.31
2018-09-17T02:42:01.607Z,10.33
2018-09-17T02:44:30.863Z,10.05
2018-09-17T02:47:00.362Z,10.25
2018-09-17T02:49:28.996Z,10.29
2018-09-17T02:51:58.529Z,10.34
2018-09-17T02:54:27.090Z,10.22
2018-09-17T02:56:55.731Z,10.11
2018-09-17T02:59:24.357Z,10.09
2018-09-17T03:01:53.117Z,10.06
2018-09-17T03:04:21.791Z,10.01
2018-09-17T03:06:50.354Z,9.96
2018-09-17T03:09:18.889Z,9.79
2018-09-17T03:11:47.476Z,9.96
2018-09-17T03:14:16.233Z,10.04
2018-09-17T03:16:55.807Z,9.98
2018-09-17T03:19:26.257Z,9.94
2018-09-17T03:21:55.029Z,9.81
2018-09-17T03:24:24.316Z,9.62
2018-09-17T03:26:52.843Z,9.48
2018-09-17T03:29:22.261Z,9.20
2018-09-17T03:31:50.803Z,9.43
2018-09-17T03:34:21.193Z,9.76
2018-09-17T03:36:49.915Z,9.80
2018-09-17T03:39:18.496Z,9.82
2018-09-17T03:41:47.040Z,9.80
2018-09-17T03:44:16.571Z,9.71
2018-09-17T03:46:45.233Z,9.52
2018-09-17T03:49:13.803Z,9.54
2018-09-17T03:51:42.375Z,9.60
2018-09-17T03:54:12.479Z,9.60
2018-09-17T03:56:41.096Z,9.62
2018-09-17T03:59:09.797Z,9.61
2018-09-17T04:01:39.382Z,9.54
2018-09-17T04:04:09.157Z,9.43
2018-09-17T04:06:37.691Z,9.37
2018-09-17T04:09:07.565Z,9.40
2018-09-17T04:11:36.829Z,9.41
2018-09-17T04:14:05.785Z,9.34
2018-09-17T04:16:34.466Z,9.12
2018-09-17T04:19:03.310Z,9.23
2018-09-17T04:21:31.929Z,9.27
2018-09-17T04:24:01.232Z,9.28
2018-09-17T04:26:29.804Z,9.19
2018-09-17T04:28:58.331Z,8.82
2018-09-17T04:31:27.001Z,9.13
2018-09-17T04:33:56.254Z,9.28
2018-09-17T04:36:24.842Z,9.25
2018-09-17T04:38:53.705Z,9.23
2018-09-17T04:41:22.298Z,9.26
2018-09-17T04:43:50.822Z,9.27
2018-09-17T04:46:19.471Z,9.14
2018-09-17T04:48:49.478Z,9.09
2018-09-17T04:51:18.060Z,8.97
2018-09-17T04:53:46.574Z,9.21
2018-09-17T04:56:15.632Z,8.23
2018-09-17T04:58:44.339Z,9.39
2018-09-17T05:01:12.889Z,9.36
2018-09-17T05:03:41.493Z,9.49
2018-09-17T05:06:10.038Z,9.16
2018-09-17T05:08:38.614Z,8.97
2018-09-17T05:11:07.212Z,8.56
2018-09-17T05:13:36.323Z,8.96
2018-09-17T05:16:05.622Z,8.60
2018-09-17T05:18:34.183Z,8.68
2018-09-17T05:21:02.791Z,8.99
2018-09-17T05:23:31.905Z,9.12
2018-09-17T05:27:29.515Z,9.18
2018-09-17T05:29:58.056Z,9.09
2018-09-17T05:32:27.110Z,9.08
2018-09-17T05:34:55.845Z,9.12
2018-09-17T05:37:24.581Z,9.12
2018-09-17T05:39:53.513Z,9.22
2018-09-17T05:42:22.035Z,9.29
2018-09-17T05:44:50.668Z,9.42
2018-09-17T05:47:19.250Z,9.07
2018-09-17T05:49:47.852Z,9.20
2018-09-17T05:52:18.064Z,9.29
2018-09-17T05:54:46.599Z,9.45
2018-09-17T05:57:15.594Z,9.86
2018-09-17T05:59:44.260Z,11.17
2018-09-17T06:02:14.206Z,12.21
2018-09-17T06:04:42.990Z,12.66
2018-09-17T06:07:12.588Z,13.11
2018-09-17T06:09:41.228Z,13.14
2018-09-17T06:12:09.894Z,11.88
2018-09-17T06:14:39.994Z,12.03
2018-09-17T06:17:09.200Z,11.83
2018-09-17T06:19:37.811Z,11.58
2018-09-17T06:22:06.510Z,11.17
2018-09-17T06:24:36.243Z,12.97
2018-09-17T06:27:05.948Z,13.79
2018-09-17T06:29:34.532Z,14.49
2018-09-17T06:32:03.267Z,15.03
2018-09-17T06:34:32.314Z,15.41
2018-09-17T06:37:01.060Z,15.67
2018-09-17T06:39:29.618Z,15.13
2018-09-17T06:41:58.672Z,15.53
2018-09-17T06:44:27.463Z,15.55
2018-09-17T06:46:55.906Z,16.48
2018-09-17T06:54:10.809Z,17.80
2018-09-17T06:56:39.956Z,18.15
2018-09-17T06:59:08.514Z,16.98
2018-09-17T07:01:37.351Z,18.65
2018-09-17T07:04:05.847Z,19.41
2018-09-17T07:06:34.316Z,19.65
2018-09-17T07:09:02.972Z,19.81
2018-09-17T07:11:31.446Z,20.09
2018-09-17T07:13:59.926Z,19.60
2018-09-17T07:16:28.426Z,19.91
2018-09-17T07:18:56.965Z,20.36
2018-09-17T07:21:25.463Z,19.33
2018-09-17T07:23:54.851Z,18.13
2018-09-17T07:26:23.462Z,19.65
2018-09-17T07:28:52.612Z,20.61
2018-09-17T07:31:21.190Z,20.73
2018-09-17T07:33:50.156Z,21.47
2018-09-17T07:36:18.654Z,21.88
2018-09-17T07:38:47.168Z,22.15
2018-09-17T07:41:16.343Z,21.04
2018-09-17T07:43:45.034Z,21.35
2018-09-17T07:46:14.241Z,21.32
2018-09-17T07:48:42.784Z,21.40
2018-09-17T07:51:11.239Z,22.37
2018-09-17T07:53:39.776Z,22.11
2018-09-17T07:56:08.257Z,20.83
2018-09-17T07:58:37.650Z,21.38
2018-09-17T08:01:06.377Z,21.00
2018-09-17T08:03:34.835Z,21.32
2018-09-17T08:06:04.035Z,20.70
2018-09-17T08:08:32.891Z,21.09
2018-09-17T08:11:01.356Z,21.91
2018-09-17T08:13:29.812Z,21.49
2018-09-17T08:15:58.252Z,22.54
2018-09-17T08:18:26.760Z,23.45
2018-09-17T08:20:55.288Z,23.06
2018-09-17T08:23:23.794Z,22.76
2018-09-17T08:25:52.420Z,23.34
2018-09-17T08:28:20.951Z,22.41
2018-09-17T08:30:49.894Z,22.10
2018-09-17T08:33:19.269Z,22.52
2018-09-17T08:35:47.736Z,23.57
2018-09-17T08:38:16.291Z,21.92
2018-09-17T08:40:45.134Z,21.35
2018-09-17T08:43:13.704Z,21.54
2018-09-17T08:45:42.213Z,21.31
2018-09-17T08:48:11.421Z,22.21
2018-09-17T08:50:40.275Z,22.80
2018-09-17T08:53:09.534Z,22.43
2018-09-17T08:55:43.282Z,22.36
2018-09-17T08:58:31.586Z,22.78
2018-09-17T09:01:02.928Z,22.96
2018-09-17T09:03:36.588Z,23.48
2018-09-17T09:06:10.145Z,23.97
2018-09-17T09:08:38.656Z,23.12
2018-09-17T09:11:13.938Z,22.82
2018-09-17T09:13:49.080Z,23.69
2018-09-17T09:16:17.626Z,25.14
2018-09-17T09:18:46.120Z,24.48
2018-09-17T09:21:14.934Z,25.41
2018-09-17T09:23:43.395Z,24.71
2018-09-17T09:26:11.900Z,24.48
2018-09-17T09:28:40.919Z,25.24
2018-09-17T09:31:10.208Z,24.92
2018-09-17T09:33:38.692Z,24.90
2018-09-17T09:36:07.180Z,25.39
2018-09-17T09:38:35.674Z,25.04
2018-09-17T09:41:04.305Z,26.56
2018-09-17T09:43:32.875Z,26.67
2018-09-17T09:46:01.392Z,26.55
2018-09-17T09:48:29.932Z,27.34
2018-09-17T09:50:59.005Z,26.60
2018-09-17T09:53:28.289Z,26.42
2018-09-17T09:55:56.817Z,26.46
2018-09-17T09:58:25.948Z,25.71
2018-09-17T10:00:59.695Z,26.45
2018-09-17T10:03:30.255Z,26.47
2018-09-17T10:05:58.883Z,26.79
2018-09-17T10:08:27.603Z,26.83
2018-09-17T10:11:02.027Z,27.97
2018-09-17T10:14:39.920Z,28.23
2018-09-17T10:17:14.431Z,27.41
2018-09-17T10:19:49.589Z,27.99
2018-09-17T10:22:18.812Z,27.67
2018-09-17T10:24:47.447Z,28.17
2018-09-17T10:27:16.861Z,28.53
2018-09-17T10:29:45.946Z,28.83
2018-09-17T10:32:14.656Z,29.32
2018-09-17T10:34:43.540Z,28.39
2018-09-17T10:37:12.709Z,28.49
2018-09-17T10:39:41.258Z,28.59
2018-09-17T10:42:09.704Z,29.26
2018-09-17T10:44:38.234Z,29.65
2018-09-17T10:47:06.746Z,29.85
2018-09-17T10:49:35.227Z,29.97
2018-09-17T10:52:03.662Z,29.92
2018-09-17T10:54:33.011Z,29.23
2018-09-17T10:57:01.494Z,29.73
2018-09-17T10:59:29.995Z,29.66
2018-09-17T11:01:58.517Z,29.78
2018-09-17T11:04:26.980Z,29.93
2018-09-17T11:06:55.509Z,29.55
2018-09-17T11:09:24.501Z,28.11
2018-09-17T11:11:53.017Z,28.64
2018-09-17T11:14:22.286Z,29.86
2018-09-17T11:16:51.370Z,30.02
2018-09-17T11:19:22.462Z,29.19
2018-09-17T11:21:50.965Z,30.29
2018-09-17T11:24:19.484Z,31.04
2018-09-17T11:26:48.063Z,31.23
2018-09-17T11:29:16.556Z,30.17
2018-09-17T11:31:45.075Z,30.07
2018-09-17T11:34:13.605Z,30.26
2018-09-17T11:36:42.782Z,30.65
2018-09-17T11:39:12.076Z,30.83
2018-09-17T11:41:40.981Z,30.54
2018-09-17T11:44:10.115Z,29.99
2018-09-17T11:46:38.864Z,30.05
2018-09-17T11:49:08.150Z,30.97
2018-09-17T11:51:36.682Z,29.14
2018-09-17T11:54:05.271Z,29.81
2018-09-17T11:56:33.752Z,30.61
2018-09-17T11:59:02.403Z,30.85
2018-09-17T12:01:36.319Z,30.57
2018-09-17T12:04:09.959Z,30.01
2018-09-17T12:06:43.776Z,29.34
2018-09-17T12:09:13.011Z,29.87
2018-09-17T12:11:42.105Z,30.11
2018-09-17T12:14:10.587Z,30.83
2018-09-17T12:16:39.094Z,30.77
2018-09-17T12:19:07.584Z,30.35
2018-09-17T12:21:36.177Z,29.90
2018-09-17T12:24:04.634Z,29.80
2018-09-17T12:26:34.593Z,29.87
2018-09-17T12:29:03.046Z,30.67
2018-09-17T12:31:32.043Z,30.41
2018-09-17T12:34:00.594Z,30.32
2018-09-17T12:36:29.009Z,30.20
2018-09-17T12:38:57.440Z,29.36
2018-09-17T12:41:25.923Z,29.36
2018-09-17T12:43:54.395Z,29.77
2018-09-17T12:46:23.538Z,29.77
2018-09-17T12:48:51.983Z,30.07
2018-09-17T12:51:20.515Z,30.02
2018-09-17T12:53:48.963Z,29.46
2018-09-17T12:56:17.375Z,29.67
2018-09-17T12:58:46.131Z,30.41
2018-09-17T13:01:14.620Z,30.88
2018-09-17T13:03:43.119Z,30.13
2018-09-17T13:06:11.605Z,30.75
2018-09-17T13:08:41.144Z,30.54
2018-09-17T13:11:10.291Z,30.66
2018-09-17T13:13:39.711Z,30.15
2018-09-17T13:16:09.370Z,30.61
2018-09-17T13:18:37.808Z,29.45
2018-09-17T13:21:06.251Z,29.60
2018-09-17T13:23:34.727Z,30.38
2018-09-17T13:26:03.185Z,29.24
2018-09-17T13:28:32.400Z,29.02
2018-09-17T13:31:00.961Z,29.63
2018-09-17T13:33:29.359Z,30.14
2018-09-17T13:35:57.790Z,29.50
2018-09-17T13:38:26.237Z,29.20
2018-09-17T13:40:54.658Z,29.38
2018-09-17T13:43:23.173Z,29.34
2018-09-17T13:45:51.597Z,28.11
2018-09-17T13:48:20.030Z,27.97
2018-09-17T13:50:48.503Z,28.01
2018-09-17T13:53:16.959Z,27.82
2018-09-17T13:55:45.662Z,28.25
2018-09-17T13:58:14.166Z,28.23
2018-09-17T14:00:42.604Z,28.09
2018-09-17T14:03:11.076Z,27.98
2018-09-17T14:05:39.530Z,28.00
2018-09-17T14:08:08.103Z,27.84
2018-09-17T14:10:37.130Z,27.76
2018-09-17T14:13:05.613Z,27.56
2018-09-17T14:15:34.075Z,27.65
2018-09-17T14:18:07.611Z,27.65
2018-09-17T14:20:36.091Z,27.67
2018-09-17T14:23:04.564Z,27.50
2018-09-17T14:25:33.042Z,27.81
2018-09-17T14:28:01.534Z,27.67
2018-09-17T14:30:29.947Z,27.70
2018-09-17T14:33:03.796Z,27.50
2018-09-17T14:35:32.417Z,27.61
2018-09-17T14:38:00.946Z,27.13
2018-09-17T14:40:29.375Z,27.36
2018-09-17T14:42:57.825Z,27.29
2018-09-17T14:45:26.247Z,27.20
2018-09-17T14:47:54.780Z,27.07
2018-09-17T14:50:25.252Z,27.02
2018-09-17T14:52:53.680Z,27.13
2018-09-17T14:55:22.150Z,26.97
2018-09-17T14:57:50.546Z,26.86
2018-09-17T15:00:18.922Z,26.78
2018-09-17T15:02:47.343Z,26.79
2018-09-17T15:05:15.719Z,26.65
2018-09-17T15:07:44.262Z,26.61
2018-09-17T15:10:12.770Z,26.65
2018-09-17T15:12:41.164Z,26.69
2018-09-17T15:15:09.683Z,26.69
2018-09-17T15:17:38.160Z,26.82
2018-09-17T15:20:06.651Z,26.85
2018-09-17T15:22:35.157Z,26.69
2018-09-17T15:25:03.692Z,26.77
2018-09-17T15:27:32.348Z,26.70
2018-09-17T15:30:02.348Z,26.63
2018-09-17T15:32:31.007Z,26.69
2018-09-17T15:35:00.154Z,26.70
2018-09-17T15:37:28.715Z,26.63
2018-09-17T15:39:57.190Z,26.48
2018-09-17T15:42:25.801Z,26.65
2018-09-17T15:44:54.906Z,26.39
2018-09-17T15:47:23.439Z,26.33
2018-09-17T15:49:51.998Z,26.27
2018-09-17T15:52:20.610Z,26.20
2018-09-17T15:54:49.160Z,26.22
2018-09-17T15:57:18.342Z,26.19
2018-09-17T15:59:47.402Z,26.02
2018-09-17T16:02:15.902Z,26.02
2018-09-17T16:04:44.571Z,25.88
2018-09-17T16:07:13.108Z,25.90
2018-09-17T16:09:41.659Z,25.74
2018-09-17T16:12:10.168Z,25.69
2018-09-17T16:14:38.718Z,25.57
2018-09-17T16:17:07.340Z,25.63
2018-09-17T16:19:37.018Z,25.53
2018-09-17T16:22:05.641Z,25.21
2018-09-17T16:24:34.142Z,25.31
2018-09-17T16:27:02.667Z,25.24
2018-09-17T16:29:32.891Z,25.15
2018-09-17T16:32:01.504Z,25.21
2018-09-17T16:34:30.060Z,25.04
2018-09-17T16:36:58.623Z,24.86
2018-09-17T16:39:27.560Z,24.85
2018-09-17T16:41:56.591Z,24.66
2018-09-17T16:44:25.584Z,24.45
2018-09-17T16:46:54.100Z,24.30
2018-09-17T16:49:22.612Z,24.28
2018-09-17T16:51:51.161Z,24.10
2018-09-17T16:54:20.333Z,23.93
2018-09-17T16:56:48.934Z,23.80
2018-09-17T16:59:19.171Z,23.58
2018-09-17T17:01:47.719Z,23.47
2018-09-17T17:04:16.341Z,23.39
2018-09-17T17:06:45.286Z,23.26
2018-09-17T17:09:14.658Z,23.11
2018-09-17T17:11:43.845Z,22.94
2018-09-17T17:14:12.525Z,22.77
2018-09-17T17:16:43.763Z,22.54
2018-09-17T17:19:12.340Z,22.45
2018-09-17T17:21:40.900Z,22.29
2018-09-17T17:24:09.428Z,22.18
2018-09-17T17:26:38.036Z,22.02
2018-09-17T17:29:06.608Z,21.86
2018-09-17T17:31:35.690Z,21.68
2018-09-17T17:34:04.216Z,21.40
2018-09-17T17:36:32.685Z,21.13
2018-09-17T17:39:01.274Z,20.91
2018-09-17T17:41:30.235Z,20.77
2018-09-17T17:43:59.105Z,20.56
2018-09-17T17:46:27.849Z,20.37
2018-09-17T17:48:56.236Z,20.21
2018-09-17T17:51:24.684Z,19.98
2018-09-17T17:53:53.224Z,19.78
2018-09-17T17:56:21.691Z,19.65
2018-09-17T17:58:51.302Z,19.49
2018-09-17T18:01:20.018Z,19.38
2018-09-17T18:03:49.059Z,19.23
2018-09-17T18:06:17.428Z,19.03
2018-09-17T18:08:45.841Z,18.96
2018-09-17T18:11:16.163Z,18.83
2018-09-17T18:13:45.989Z,18.69
2018-09-17T18:16:14.436Z,18.46
2018-09-17T18:18:42.950Z,18.44
2018-09-17T18:21:11.387Z,18.43
2018-09-17T18:23:40.480Z,18.42
2018-09-17T18:26:08.934Z,18.37
2018-09-17T18:28:37.639Z,18.25
2018-09-17T18:31:06.506Z,18.09
2018-09-17T18:33:35.044Z,17.86
2018-09-17T18:36:05.081Z,17.78
2018-09-17T18:38:33.601Z,17.67
2018-09-17T18:41:02.574Z,17.60
2018-09-17T18:43:31.595Z,17.55
2018-09-17T18:46:00.092Z,17.43
2018-09-17T18:48:28.870Z,17.37
2018-09-17T18:50:57.518Z,17.28
2018-09-17T18:53:25.966Z,17.17
2018-09-17T18:55:54.649Z,17.05
2018-09-17T18:58:23.213Z,16.99
2018-09-17T19:00:52.462Z,16.92
2018-09-17T19:03:21.510Z,16.92
2018-09-17T19:05:49.997Z,16.84
2018-09-17T19:08:18.391Z,16.74
2018-09-17T19:10:47.704Z,16.67
2018-09-17T19:13:16.119Z,16.64
2018-09-17T19:15:49.733Z,16.56
2018-09-17T19:18:19.046Z,16.52
2018-09-17T19:20:48.982Z,16.47
2018-09-17T19:23:22.360Z,16.42
2018-09-17T19:25:52.159Z,16.33
2018-09-17T19:28:25.978Z,16.27
2018-09-17T19:30:54.388Z,16.19
2018-09-17T19:33:23.289Z,16.12
2018-09-17T19:35:52.081Z,16.15
2018-09-17T19:38:25.865Z,16.17
2018-09-17T19:40:54.271Z,16.14
2018-09-17T19:43:23.207Z,16.07
2018-09-17T19:45:57.674Z,15.94
2018-09-17T19:48:26.230Z,15.83
2018-09-17T19:50:59.905Z,15.74
2018-09-17T19:53:28.327Z,15.73
2018-09-17T19:55:56.984Z,15.72
2018-09-17T19:58:31.763Z,15.67
2018-09-17T20:01:00.248Z,15.62
2018-09-17T20:03:28.733Z,15.60
2018-09-17T20:06:03.377Z,15.61
2018-09-17T20:08:32.304Z,15.64
2018-09-17T20:11:00.751Z,15.57
2018-09-17T20:13:29.208Z,15.46
2018-09-17T20:16:00.291Z,15.38
2018-09-17T20:18:29.348Z,15.30
2018-09-17T20:20:57.930Z,15.20
2018-09-17T20:23:26.916Z,15.10
2018-09-17T20:25:55.694Z,15.11
2018-09-17T20:28:24.518Z,15.08
2018-09-17T20:30:53.008Z,15.06
2018-09-17T20:33:23.515Z,15.09
2018-09-17T20:35:52.888Z,15.08
2018-09-17T20:38:21.440Z,15.15
2018-09-17T20:40:49.861Z,15.15
2018-09-17T20:43:18.382Z,15.07
2018-09-17T20:45:46.916Z,14.90
2018-09-17T20:48:15.396Z,14.75
2018-09-17T20:50:43.851Z,14.67
2018-09-17T20:53:13.741Z,14.64
2018-09-17T20:55:42.309Z,14.61
2018-09-17T20:58:12.108Z,14.57
2018-09-17T21:00:40.543Z,14.55
2018-09-17T21:03:09.018Z,14.50
2018-09-17T21:05:37.677Z,14.50
2018-09-17T21:08:07.224Z,14.52
2018-09-17T21:10:35.661Z,14.54
2018-09-17T21:13:04.164Z,14.61
2018-09-17T21:15:32.628Z,14.63
2018-09-17T21:18:01.219Z,14.61
2018-09-17T21:20:29.719Z,14.37
2018-09-17T21:22:58.169Z,14.38
2018-09-17T21:25:26.780Z,14.37
2018-09-17T21:27:56.242Z,14.36
2018-09-17T21:30:24.706Z,14.40
2018-09-17T21:32:53.196Z,14.38
2018-09-17T21:35:21.733Z,14.20
2018-09-17T21:37:50.219Z,14.17
2018-09-17T21:40:19.304Z,14.18
2018-09-17T21:42:47.812Z,14.25
2018-09-17T21:45:16.231Z,14.28
2018-09-17T21:47:44.818Z,14.28
2018-09-17T21:50:13.904Z,14.19
2018-09-17T21:52:42.412Z,14.28
2018-09-17T21:55:11.404Z,13.88
2018-09-17T21:57:40.005Z,14.13
2018-09-17T22:00:09.607Z,14.07
2018-09-17T22:02:38.726Z,14.12
2018-09-17T22:05:07.339Z,14.06
2018-09-17T22:07:35.900Z,14.14
2018-09-17T22:10:04.584Z,14.10
2018-09-17T22:12:34.143Z,14.22
2018-09-17T22:15:02.655Z,14.01
2018-09-17T22:17:31.845Z,14.06
2018-09-17T22:20:15.909Z,13.87
2018-09-17T22:22:44.510Z,13.77
2018-09-17T22:25:12.935Z,13.83
2018-09-17T22:27:41.644Z,13.82
2018-09-17T22:30:10.162Z,13.70
2018-09-17T22:32:38.667Z,13.81
2018-09-17T22:35:07.106Z,13.68
2018-09-17T22:37:35.633Z,13.83
2018-09-17T22:40:04.190Z,13.80
2018-09-17T22:42:32.737Z,13.65
2018-09-17T22:45:01.142Z,13.63
2018-09-17T22:47:29.736Z,13.71
2018-09-17T22:49:58.302Z,13.68
2018-09-17T22:52:27.894Z,13.81
2018-09-17T22:54:56.341Z,13.63
2018-09-17T22:57:24.800Z,13.57
2018-09-17T22:59:53.298Z,13.59
2018-09-17T23:02:22.269Z,13.53
2018-09-17T23:04:50.817Z,13.58
2018-09-17T23:07:19.361Z,13.49
2018-09-17T23:09:47.828Z,13.47
2018-09-17T23:12:16.600Z,13.33
2018-09-17T23:14:45.859Z,13.42
2018-09-17T23:17:14.361Z,13.35
2018-09-17T23:19:42.886Z,13.38
2018-09-17T23:22:11.379Z,13.23
2018-09-17T23:24:39.882Z,13.31
2018-09-17T23:27:08.326Z,12.96
2018-09-17T23:29:36.797Z,13.08
2018-09-17T23:32:05.251Z,12.99
2018-09-17T23:34:33.735Z,13.02
2018-09-17T23:37:03.007Z,12.98
2018-09-17T23:39:32.024Z,12.91
2018-09-17T23:42:00.487Z,13.06
2018-09-17T23:44:28.977Z,13.05
2018-09-17T23:46:57.511Z,13.15
2018-09-17T23:49:26.683Z,12.91
2018-09-17T23:51:55.108Z,13.06
2018-09-17T23:54:23.632Z,12.87
2018-09-17T23:56:52.199Z,13.15
2018-09-17T23:59:20.809Z,13.09
